createdAt,value
2022-12-25T00:00:06.620Z,23.00
2022-12-25T00:02:37.425Z,16.30
2022-12-25T00:05:08.996Z,18.67
2022-12-25T00:07:39.607Z,18.37
2022-12-25T00:10:13.042Z,19.98
2022-12-25T00:12:43.793Z,19.57
2022-12-25T00:15:15.901Z,21.97
2022-12-25T00:17:49.565Z,19.67
2022-12-25T00:20:20.136Z,19.32
2022-12-25T00:22:50.665Z,17.17
2022-12-25T00:25:21.167Z,17.52
2022-12-25T00:27:53.982Z,22.50
2022-12-25T00:30:24.428Z,20.80
2022-12-25T00:32:54.883Z,19.67
2022-12-25T00:35:25.826Z,17.80
2022-12-25T00:37:56.356Z,21.97
2022-12-25T00:40:28.167Z,20.62
2022-12-25T00:42:58.879Z,22.50
2022-12-25T00:45:31.322Z,24.85
2022-12-25T00:48:01.541Z,19.52
2022-12-25T00:50:32.508Z,19.37
2022-12-25T00:53:03.102Z,21.62
2022-12-25T00:55:35.168Z,21.15
2022-12-25T00:58:06.869Z,24.70
2022-12-25T01:00:40.445Z,20.50
2022-12-25T01:03:11.125Z,19.48
2022-12-25T01:05:41.917Z,18.35
2022-12-25T01:08:12.994Z,26.35
2022-12-25T01:10:43.928Z,27.00
2022-12-25T01:13:14.480Z,21.70
2022-12-25T01:15:45.172Z,23.20
2022-12-25T01:18:15.884Z,21.42
2022-12-25T01:20:46.862Z,23.95
2022-12-25T01:23:18.263Z,21.48
2022-12-25T01:25:48.907Z,21.25
2022-12-25T01:28:20.327Z,22.67
2022-12-25T01:30:52.205Z,19.73
2022-12-25T01:33:22.620Z,22.70
2022-12-25T01:35:53.481Z,21.47
2022-12-25T01:38:24.015Z,24.90
2022-12-25T01:40:54.874Z,21.02
2022-12-25T01:43:28.530Z,21.97
2022-12-25T01:45:59.981Z,25.90
2022-12-25T01:48:33.973Z,22.62
2022-12-25T01:51:10.214Z,21.25
2022-12-25T01:53:41.364Z,23.92
2022-12-25T01:56:12.512Z,23.18
2022-12-25T01:58:45.083Z,23.67
2022-12-25T02:01:16.857Z,22.45
2022-12-25T02:03:49.000Z,27.40
2022-12-25T02:06:21.274Z,25.88
2022-12-25T02:08:52.236Z,23.90
2022-12-25T02:11:41.942Z,22.90
2022-12-25T02:14:12.964Z,25.97
2022-12-25T02:16:57.715Z,20.37
2022-12-25T02:19:33.956Z,28.23
2022-12-25T02:22:16.822Z,23.83
2022-12-25T02:25:10.935Z,26.45
2022-12-25T02:28:05.387Z,26.37
2022-12-25T02:30:40.626Z,24.57
2022-12-25T02:33:34.969Z,27.82
2022-12-25T02:36:08.784Z,25.77
2022-12-25T02:38:46.445Z,25.02
2022-12-25T02:41:18.212Z,28.57
2022-12-25T02:44:07.100Z,25.15
2022-12-25T02:46:57.955Z,23.90
2022-12-25T02:49:49.964Z,23.70
2022-12-25T02:52:42.614Z,23.77
2022-12-25T02:55:34.073Z,25.43
2022-12-25T02:58:25.484Z,25.53
2022-12-25T03:01:20.397Z,22.77
2022-12-25T03:04:12.166Z,28.80
2022-12-25T03:06:46.613Z,23.38
2022-12-25T03:09:43.858Z,27.20
2022-12-25T03:12:23.199Z,21.33
2022-12-25T03:15:11.923Z,24.07
2022-12-25T03:17:44.326Z,23.40
2022-12-25T03:20:36.031Z,26.40
2022-12-25T03:23:25.893Z,22.17
2022-12-25T03:26:15.528Z,19.20
2022-12-25T03:28:46.059Z,21.12
2022-12-25T03:31:31.508Z,21.15
2022-12-25T03:34:53.164Z,23.18
2022-12-25T03:37:40.188Z,19.57
2022-12-25T03:40:43.769Z,23.65
2022-12-25T03:43:41.072Z,27.50
2022-12-25T03:46:32.337Z,23.47
2022-12-25T03:49:41.958Z,26.27
2022-12-25T03:52:33.268Z,23.42
2022-12-25T03:55:24.586Z,23.35
2022-12-25T03:58:13.452Z,19.87
2022-12-25T04:01:01.863Z,27.65
2022-12-25T04:03:50.314Z,21.07
2022-12-25T04:06:39.209Z,27.82
2022-12-25T04:09:29.577Z,18.85
2022-12-25T04:12:17.792Z,19.35
2022-12-25T04:15:06.162Z,22.40
2022-12-25T04:17:54.773Z,23.02
2022-12-25T04:20:43.218Z,20.68
2022-12-25T04:23:31.984Z,22.17
2022-12-25T04:26:20.883Z,20.17
2022-12-25T04:29:09.215Z,24.07
2022-12-25T04:31:58.808Z,26.70
2022-12-25T04:34:49.669Z,21.55
2022-12-25T04:37:20.346Z,27.00
2022-12-25T04:39:51.556Z,22.32
2022-12-25T04:42:23.993Z,20.43
2022-12-25T04:44:55.511Z,18.52
2022-12-25T04:47:26.151Z,20.65
2022-12-25T04:49:56.669Z,22.70
2022-12-25T04:52:27.357Z,23.60
2022-12-25T04:54:58.010Z,23.23
2022-12-25T04:57:28.737Z,23.43
2022-12-25T04:59:59.373Z,18.15
2022-12-25T05:02:33.405Z,26.37
2022-12-25T05:05:05.977Z,27.17
2022-12-25T05:07:39.414Z,20.92
2022-12-25T05:10:11.251Z,22.60
2022-12-25T05:12:44.702Z,24.65
2022-12-25T05:15:15.808Z,21.70
2022-12-25T05:17:47.886Z,22.22
2022-12-25T05:20:18.603Z,19.05
2022-12-25T05:22:49.238Z,18.80
2022-12-25T05:25:20.580Z,17.30
2022-12-25T05:27:54.050Z,22.45
2022-12-25T05:30:24.945Z,21.55
2022-12-25T05:32:55.437Z,24.87
2022-12-25T05:35:25.934Z,24.02
2022-12-25T05:37:56.622Z,25.30
2022-12-25T05:40:27.304Z,23.50
2022-12-25T05:42:58.309Z,22.30
2022-12-25T05:45:28.929Z,18.12
2022-12-25T05:47:59.431Z,27.30
2022-12-25T05:50:30.511Z,22.42
2022-12-25T05:53:07.717Z,19.80
2022-12-25T05:55:36.565Z,20.82
2022-12-25T05:58:08.822Z,19.00
2022-12-25T06:00:41.468Z,23.87
2022-12-25T06:03:12.270Z,23.95
2022-12-25T06:05:43.543Z,23.45
2022-12-25T06:08:14.405Z,18.98
2022-12-25T06:10:44.941Z,21.93
2022-12-25T06:13:15.855Z,22.80
2022-12-25T06:15:46.324Z,19.90
2022-12-25T06:18:18.960Z,22.00
2022-12-25T06:20:51.513Z,21.33
2022-12-25T06:23:23.382Z,25.87
2022-12-25T06:25:55.153Z,21.12
2022-12-25T06:28:26.832Z,25.08
2022-12-25T06:30:57.943Z,27.93
2022-12-25T06:33:29.895Z,23.67
2022-12-25T06:36:00.836Z,25.47
2022-12-25T06:38:31.324Z,22.07
2022-12-25T06:41:10.737Z,23.47
2022-12-25T06:43:41.429Z,27.05
2022-12-25T06:46:13.747Z,24.30
2022-12-25T06:48:50.837Z,21.93
2022-12-25T06:51:26.549Z,19.40
2022-12-25T06:53:58.585Z,16.82
2022-12-25T06:56:31.334Z,22.20
2022-12-25T06:59:04.589Z,19.65
2022-12-25T07:01:47.047Z,23.03
2022-12-25T07:04:23.645Z,21.52
2022-12-25T07:06:54.202Z,20.10
2022-12-25T07:09:24.944Z,23.45
2022-12-25T07:11:55.683Z,20.05
2022-12-25T07:14:26.139Z,25.08
2022-12-25T07:16:57.869Z,24.13
2022-12-25T07:19:28.786Z,21.15
2022-12-25T07:22:00.419Z,19.83
2022-12-25T07:24:35.458Z,27.10
2022-12-25T07:27:07.620Z,25.20
2022-12-25T07:29:39.491Z,21.23
2022-12-25T07:32:10.029Z,21.93
2022-12-25T07:34:41.566Z,22.35
2022-12-25T07:37:13.520Z,23.20
2022-12-25T07:39:44.027Z,26.40
2022-12-25T07:42:14.459Z,28.60
2022-12-25T07:44:46.271Z,23.65
2022-12-25T07:47:16.704Z,26.27
2022-12-25T07:49:47.256Z,27.65
2022-12-25T07:52:18.201Z,28.80
2022-12-25T07:54:50.788Z,24.65
2022-12-25T07:57:22.348Z,24.25
2022-12-25T07:59:53.372Z,31.27
2022-12-25T08:02:28.668Z,23.62
2022-12-25T08:05:00.499Z,23.50
2022-12-25T08:07:31.883Z,19.42
2022-12-25T08:10:04.363Z,19.95
2022-12-25T08:12:37.089Z,23.65
2022-12-25T08:15:11.876Z,24.98
2022-12-25T08:17:45.607Z,21.93
2022-12-25T08:20:17.421Z,22.05
2022-12-25T08:22:50.563Z,24.47
2022-12-25T08:25:21.092Z,23.45
2022-12-25T08:27:51.704Z,23.05
2022-12-25T08:30:22.112Z,19.75
2022-12-25T08:32:53.391Z,21.50
2022-12-25T08:35:23.909Z,17.10
2022-12-25T08:37:56.641Z,22.20
2022-12-25T08:40:27.860Z,25.15
2022-12-25T08:43:01.521Z,25.88
2022-12-25T08:45:35.265Z,33.65
2022-12-25T08:48:05.171Z,32.25
2022-12-25T08:50:35.876Z,43.87
2022-12-25T08:53:06.680Z,28.67
2022-12-25T08:55:37.190Z,23.13
2022-12-25T08:58:09.429Z,26.50
2022-12-25T09:00:40.809Z,28.73
2022-12-25T09:03:11.478Z,23.65
2022-12-25T09:05:43.066Z,25.43
2022-12-25T09:08:13.698Z,22.10
2022-12-25T09:10:44.315Z,24.60
2022-12-25T09:13:16.547Z,24.77
2022-12-25T09:15:47.061Z,26.23
2022-12-25T09:18:17.772Z,21.07
2022-12-25T09:20:49.717Z,18.45
2022-12-25T09:23:20.207Z,19.30
2022-12-25T09:25:52.021Z,21.77
2022-12-25T09:28:22.959Z,25.00
2022-12-25T09:30:59.168Z,21.52
2022-12-25T09:33:33.055Z,21.73
2022-12-25T09:36:08.162Z,23.38
2022-12-25T09:38:40.611Z,27.37
2022-12-25T09:41:36.971Z,25.45
2022-12-25T09:44:14.801Z,26.73
2022-12-25T09:46:48.349Z,30.05
2022-12-25T09:49:40.348Z,27.15
2022-12-25T09:52:19.496Z,25.00
2022-12-25T09:55:04.917Z,22.67
2022-12-25T09:57:35.681Z,26.05
2022-12-25T10:00:09.762Z,24.47
2022-12-25T10:02:50.021Z,24.12
2022-12-25T10:05:26.514Z,24.43
2022-12-25T10:08:10.638Z,22.32
2022-12-25T10:11:06.790Z,21.05
2022-12-25T10:13:58.479Z,22.07
2022-12-25T10:16:51.469Z,20.68
2022-12-25T10:19:27.821Z,22.75
2022-12-25T10:22:06.858Z,21.75
2022-12-25T10:24:46.873Z,22.00
2022-12-25T10:27:23.488Z,20.02
2022-12-25T10:29:56.032Z,21.55
2022-12-25T10:32:26.684Z,24.45
2022-12-25T10:34:57.506Z,23.42
2022-12-25T10:37:27.993Z,22.82
2022-12-25T10:40:00.014Z,24.90
2022-12-25T10:42:45.720Z,25.57
2022-12-25T10:45:17.822Z,24.72
2022-12-25T10:47:54.990Z,22.32
2022-12-25T10:50:24.568Z,19.48
2022-12-25T10:53:05.136Z,27.87
2022-12-25T10:55:35.744Z,22.33
2022-12-25T10:58:07.501Z,23.05
2022-12-25T11:00:38.222Z,24.37
2022-12-25T11:03:11.872Z,26.00
2022-12-25T11:05:42.733Z,28.40
2022-12-25T11:08:22.049Z,25.70
2022-12-25T11:11:06.807Z,26.95
2022-12-25T11:13:43.231Z,28.70
2022-12-25T11:16:35.322Z,24.20
2022-12-25T11:19:27.124Z,34.10
2022-12-25T11:22:01.071Z,25.67
2022-12-25T11:24:35.161Z,29.40
2022-12-25T11:27:07.383Z,25.80
2022-12-25T11:29:50.628Z,23.40
2022-12-25T11:32:24.282Z,23.73
2022-12-25T11:34:55.766Z,26.95
2022-12-25T11:37:47.234Z,28.02
2022-12-25T11:40:20.928Z,28.12
2022-12-25T11:43:07.569Z,29.90
2022-12-25T11:45:36.702Z,25.00
2022-12-25T11:48:15.991Z,29.70
2022-12-25T11:50:59.184Z,28.85
2022-12-25T11:53:35.035Z,29.12
2022-12-25T11:56:11.661Z,31.70
2022-12-25T11:58:57.329Z,27.27
2022-12-25T12:01:37.120Z,28.23
2022-12-25T12:04:27.606Z,31.55
2022-12-25T12:07:33.827Z,31.80
2022-12-25T12:10:13.292Z,31.25
2022-12-25T12:12:49.611Z,33.02
2022-12-25T12:15:32.377Z,32.38
2022-12-25T12:18:25.255Z,36.40
2022-12-25T12:21:08.333Z,33.73
2022-12-25T12:23:58.503Z,32.40
2022-12-25T12:26:32.858Z,28.90
2022-12-25T12:29:05.877Z,29.65
2022-12-25T12:31:45.455Z,31.60
2022-12-25T12:34:37.224Z,29.40
2022-12-25T12:37:24.773Z,29.00
2022-12-25T12:39:55.218Z,32.50
2022-12-25T12:42:29.230Z,34.43
2022-12-25T12:45:08.624Z,27.82
2022-12-25T12:47:48.301Z,28.67
2022-12-25T12:50:43.610Z,32.13
2022-12-25T12:53:25.791Z,29.27
2022-12-25T12:55:58.238Z,31.65
2022-12-25T12:58:36.320Z,30.62
2022-12-25T13:01:09.901Z,28.38
2022-12-25T13:03:53.172Z,28.62
2022-12-25T13:06:43.910Z,25.97
2022-12-25T13:09:23.031Z,27.67
2022-12-25T13:11:53.658Z,22.93
2022-12-25T13:14:25.801Z,24.63
2022-12-25T13:16:58.124Z,25.02
2022-12-25T13:19:30.966Z,21.62
2022-12-25T13:22:07.587Z,20.48
2022-12-25T13:24:38.820Z,20.25
2022-12-25T13:27:18.386Z,21.07
2022-12-25T13:29:48.909Z,23.87
2022-12-25T13:32:31.638Z,18.97
2022-12-25T13:35:03.096Z,17.15
2022-12-25T13:37:33.764Z,18.75
2022-12-25T13:40:10.888Z,18.98
2022-12-25T13:42:41.809Z,16.52
2022-12-25T13:45:18.076Z,14.68
2022-12-25T13:47:55.221Z,15.28
2022-12-25T13:50:31.722Z,14.68
2022-12-25T13:53:16.644Z,14.83
2022-12-25T13:55:50.173Z,15.05
2022-12-25T13:58:26.565Z,15.15
2022-12-25T14:01:01.820Z,14.83
2022-12-25T14:03:38.456Z,16.37
2022-12-25T14:06:23.810Z,14.60
2022-12-25T14:09:00.875Z,16.55
2022-12-25T14:11:36.994Z,16.67
2022-12-25T14:14:11.059Z,14.45
2022-12-25T14:16:44.332Z,16.67
2022-12-25T14:19:35.334Z,17.45
2022-12-25T14:22:10.882Z,16.57
2022-12-25T14:24:42.906Z,17.30
2022-12-25T14:27:25.920Z,17.67
2022-12-25T14:30:00.849Z,16.05
2022-12-25T14:32:33.833Z,18.32
2022-12-25T14:35:04.526Z,16.02
2022-12-25T14:37:37.035Z,13.60
2022-12-25T14:40:24.412Z,15.37
2022-12-25T14:43:02.085Z,15.90
2022-12-25T14:45:36.703Z,17.25
2022-12-25T14:48:28.224Z,14.83
2022-12-25T14:51:07.716Z,16.42
2022-12-25T14:53:50.444Z,16.42
2022-12-25T14:56:23.683Z,18.90
2022-12-25T14:58:56.740Z,15.65
2022-12-25T15:01:36.380Z,14.63
2022-12-25T15:04:14.690Z,17.82
2022-12-25T15:07:08.077Z,17.70
2022-12-25T15:09:40.267Z,16.30
2022-12-25T15:12:12.995Z,14.80
2022-12-25T15:14:43.535Z,20.35
2022-12-25T15:17:17.211Z,15.17
2022-12-25T15:19:48.271Z,14.13
2022-12-25T15:22:20.237Z,18.45
2022-12-25T15:24:54.672Z,16.00
2022-12-25T15:27:23.987Z,16.20
2022-12-25T15:30:10.912Z,16.90
2022-12-25T15:32:29.831Z,12.60
2022-12-25T15:35:02.058Z,17.40
2022-12-25T15:37:32.496Z,15.18
2022-12-25T15:40:03.166Z,14.80
2022-12-25T15:42:35.492Z,18.60
2022-12-25T15:45:06.145Z,15.95
2022-12-25T15:47:37.056Z,16.82
2022-12-25T15:50:08.713Z,20.75
2022-12-25T15:52:39.293Z,21.02
2022-12-25T15:55:11.455Z,14.45
2022-12-25T15:57:43.352Z,15.55
2022-12-25T16:00:17.236Z,17.82
2022-12-25T16:02:47.926Z,16.20
2022-12-25T16:05:18.765Z,17.10
2022-12-25T16:07:49.704Z,15.43
2022-12-25T16:10:22.547Z,17.70
2022-12-25T16:12:54.188Z,15.93
2022-12-25T16:15:24.654Z,15.80
2022-12-25T16:17:55.105Z,14.73
2022-12-25T16:20:25.667Z,19.10
2022-12-25T16:22:56.653Z,16.05
2022-12-25T16:25:27.304Z,19.55
2022-12-25T16:27:57.775Z,21.10
2022-12-25T16:30:28.578Z,23.35
2022-12-25T16:32:59.257Z,19.57
2022-12-25T16:35:29.863Z,20.77
2022-12-25T16:38:00.825Z,16.42
2022-12-25T16:40:33.832Z,16.77
2022-12-25T16:43:05.011Z,17.73
2022-12-25T16:45:40.507Z,14.85
2022-12-25T16:48:12.392Z,19.55
2022-12-25T16:50:44.412Z,16.87
2022-12-25T16:53:14.953Z,19.12
2022-12-25T16:55:46.367Z,18.65
2022-12-25T16:58:16.773Z,19.82
2022-12-25T17:00:49.560Z,20.85
2022-12-25T17:03:20.636Z,17.50
2022-12-25T17:05:51.184Z,15.93
2022-12-25T17:08:23.667Z,18.35
2022-12-25T17:10:54.498Z,17.48
2022-12-25T17:13:25.419Z,15.30
2022-12-25T17:15:55.987Z,19.05
2022-12-25T17:18:27.066Z,18.40
2022-12-25T17:20:58.977Z,19.50
2022-12-25T17:23:29.640Z,21.12
2022-12-25T17:26:03.629Z,18.63
2022-12-25T17:28:35.786Z,23.10
2022-12-25T17:31:09.178Z,21.30
2022-12-25T17:33:41.610Z,20.97
2022-12-25T17:36:15.103Z,20.90
2022-12-25T17:38:47.537Z,19.27
2022-12-25T17:41:19.997Z,18.00
2022-12-25T17:43:51.724Z,22.22
2022-12-25T17:46:25.988Z,26.95
2022-12-25T17:48:58.812Z,35.17
2022-12-25T17:51:31.705Z,20.50
2022-12-25T17:54:06.035Z,20.88
2022-12-25T17:56:38.102Z,17.60
2022-12-25T17:59:11.679Z,18.27
2022-12-25T18:01:42.780Z,19.95
2022-12-25T18:04:17.290Z,19.05
2022-12-25T18:06:48.488Z,20.05
2022-12-25T18:09:21.244Z,21.10
2022-12-25T18:11:53.144Z,18.77
2022-12-25T18:14:23.747Z,20.40
2022-12-25T18:16:54.723Z,21.50
2022-12-25T18:19:26.668Z,20.90
2022-12-25T18:21:57.273Z,22.93
2022-12-25T18:24:28.343Z,21.17
2022-12-25T18:26:58.863Z,21.10
2022-12-25T18:29:29.463Z,18.00
2022-12-25T18:32:00.185Z,21.33
2022-12-25T18:34:31.141Z,21.55
2022-12-25T18:37:03.585Z,19.43
2022-12-25T18:39:36.003Z,20.75
2022-12-25T18:42:24.278Z,19.60
2022-12-25T18:44:56.539Z,19.42
2022-12-25T18:47:26.910Z,23.60
2022-12-25T18:49:57.397Z,18.98
2022-12-25T18:52:48.335Z,20.75
2022-12-25T18:55:04.563Z,18.87
2022-12-25T18:57:35.963Z,18.52
2022-12-25T19:00:09.615Z,16.93
2022-12-25T19:02:41.761Z,19.25
2022-12-25T19:05:13.752Z,17.95
2022-12-25T19:07:45.845Z,19.60
2022-12-25T19:10:16.710Z,20.60
2022-12-25T19:12:48.658Z,17.87
2022-12-25T19:15:21.442Z,19.12
2022-12-25T19:17:51.855Z,17.97
2022-12-25T19:20:22.784Z,15.78
2022-12-25T19:22:53.292Z,18.80
2022-12-25T19:25:23.650Z,18.52
2022-12-25T19:27:54.002Z,21.57
2022-12-25T19:30:24.954Z,18.92
2022-12-25T19:32:55.925Z,20.70
2022-12-25T19:35:26.949Z,18.95
2022-12-25T19:37:57.381Z,16.45
2022-12-25T19:40:28.676Z,19.50
2022-12-25T19:42:59.740Z,19.07
2022-12-25T19:45:30.330Z,19.45
2022-12-25T19:48:00.710Z,19.57
2022-12-25T19:50:34.268Z,19.87
2022-12-25T19:53:04.795Z,19.17
2022-12-25T19:55:35.395Z,18.17
2022-12-25T19:58:06.879Z,18.57
2022-12-25T20:00:38.574Z,18.62
2022-12-25T20:03:10.092Z,18.10
2022-12-25T20:05:41.809Z,20.12
2022-12-25T20:08:13.510Z,19.52
2022-12-25T20:10:45.178Z,19.30
2022-12-25T20:13:17.299Z,20.25
2022-12-25T20:15:48.678Z,19.90
2022-12-25T20:18:22.566Z,20.52
2022-12-25T20:21:04.500Z,18.07
2022-12-25T20:23:35.867Z,18.82
2022-12-25T20:26:07.514Z,22.05
2022-12-25T20:28:40.206Z,19.05
2022-12-25T20:31:27.245Z,17.35
2022-12-25T20:34:07.131Z,18.27
2022-12-25T20:36:38.376Z,19.62
2022-12-25T20:39:10.366Z,19.90
2022-12-25T20:41:42.689Z,21.25
2022-12-25T20:44:14.389Z,20.23
2022-12-25T20:46:48.546Z,20.88
2022-12-25T20:49:20.669Z,21.10
2022-12-25T20:51:51.180Z,20.68
2022-12-25T20:54:25.127Z,21.27
2022-12-25T20:56:55.719Z,19.12
2022-12-25T20:59:36.947Z,22.27
2022-12-25T21:02:06.976Z,24.45
2022-12-25T21:04:37.605Z,18.90
2022-12-25T21:07:09.170Z,22.30
2022-12-25T21:09:41.847Z,29.48
2022-12-25T21:12:12.668Z,21.97
2022-12-25T21:14:48.847Z,19.52
2022-12-25T21:17:19.901Z,19.25
2022-12-25T21:19:52.092Z,17.00
2022-12-25T21:22:22.871Z,16.45
2022-12-25T21:24:56.747Z,20.08
2022-12-25T21:27:31.892Z,17.35
2022-12-25T21:30:14.890Z,20.32
2022-12-25T21:32:55.399Z,15.95
2022-12-25T21:35:26.352Z,18.55
2022-12-25T21:37:57.226Z,19.87
2022-12-25T21:40:32.567Z,16.27
2022-12-25T21:43:03.463Z,20.95
2022-12-25T21:45:37.339Z,18.25
2022-12-25T21:48:08.322Z,15.95
2022-12-25T21:50:57.190Z,18.35
2022-12-25T21:53:31.570Z,14.98
2022-12-25T21:56:02.913Z,17.23
2022-12-25T21:58:35.870Z,16.82
2022-12-25T22:01:07.820Z,17.52
2022-12-25T22:03:38.760Z,18.07
2022-12-25T22:06:30.350Z,17.95
2022-12-25T22:09:01.574Z,18.02
2022-12-25T22:11:49.954Z,17.48
2022-12-25T22:14:51.008Z,17.10
2022-12-25T22:17:31.842Z,14.83
2022-12-25T22:20:03.231Z,17.48
2022-12-25T22:22:34.971Z,15.48
2022-12-25T22:25:07.120Z,14.98
2022-12-25T22:27:40.748Z,16.05
2022-12-25T22:30:17.344Z,14.43
2022-12-25T22:32:50.591Z,32.15
2022-12-25T22:35:26.252Z,29.82
2022-12-25T22:37:57.286Z,13.80
2022-12-25T22:40:28.007Z,12.93
2022-12-25T22:42:59.877Z,16.23
2022-12-25T22:45:35.127Z,13.85
2022-12-25T22:48:10.827Z,13.65
2022-12-25T22:50:42.350Z,13.98
2022-12-25T22:53:14.788Z,12.50
2022-12-25T22:55:50.810Z,13.20
2022-12-25T22:58:22.781Z,14.40
2022-12-25T23:00:54.844Z,11.78
2022-12-25T23:03:25.656Z,14.07
2022-12-25T23:05:58.625Z,11.68
2022-12-25T23:08:30.537Z,11.90
2022-12-25T23:11:06.810Z,11.28
2022-12-25T23:13:56.645Z,10.65
2022-12-25T23:16:27.663Z,9.88
2022-12-25T23:19:16.515Z,10.20
2022-12-25T23:22:06.201Z,9.70
2022-12-25T23:24:54.694Z,11.00
2022-12-25T23:27:25.589Z,9.83
2022-12-25T23:29:56.061Z,9.30
2022-12-25T23:32:29.240Z,8.65
2022-12-25T23:34:59.614Z,12.35
2022-12-25T23:37:30.372Z,10.23
2022-12-25T23:40:02.119Z,12.20
2022-12-25T23:42:33.954Z,9.90
2022-12-25T23:45:04.492Z,10.55
2022-12-25T23:47:36.435Z,11.97
2022-12-25T23:50:08.744Z,12.10
2022-12-25T23:52:39.843Z,11.18
2022-12-25T23:55:10.582Z,8.08
2022-12-25T23:57:43.700Z,9.35
